Time;durP1;ratioP1;P1;durP2;ratioP2;P2;SDS_P1;SDS_P2;PMS_P1;PMS_P2;Temp;Humidity;BMP_temperature;BMP_pressure;BME280_temperature;BME280_humidity;BME280_pressure;Samples;Min_cycle;Max_cycle;Signal;HPM_P1;HPM_P2
2022/07/16 00:02:44;;;;;;;3.25;2.95;;;;;;;14.84;66.18;98562.31;5017823;28;20045;-83
2022/07/16 00:05:11;;;;;;;2.88;2.65;;;;;;;14.78;66.27;98552.59;5013227;28;20046;-82
2022/07/16 00:07:38;;;;;;;3.75;2.85;;;;;;;14.57;66.29;98565.13;5011445;28;20080;-82
2022/07/16 00:10:05;;;;;;;2.78;2.58;;;;;;;14.49;66.87;98549.56;5011468;28;20057;-83
2022/07/16 00:12:32;;;;;;;2.58;2.35;;;;;;;14.57;67.15;98553.75;5028586;28;20052;-83
2022/07/16 00:14:59;;;;;;;2.60;2.03;;;;;;;14.44;67.69;98533.50;5033171;28;20046;-82
2022/07/16 00:17:26;;;;;;;3.75;2.55;;;;;;;14.53;67.55;98549.94;5020278;28;20046;-83
2022/07/16 00:19:54;;;;;;;2.40;2.20;;;;;;;14.53;67.99;98550.75;5012583;28;20048;-83
2022/07/16 00:22:20;;;;;;;4.07;2.70;;;;;;;14.45;67.61;98548.31;5026425;28;20049;-83
2022/07/16 00:24:47;;;;;;;2.80;2.10;;;;;;;14.43;67.74;98529.25;5012270;28;20445;-82
2022/07/16 00:27:14;;;;;;;2.47;2.13;;;;;;;14.61;67.86;98542.56;5013184;28;20050;-83
2022/07/16 00:29:40;;;;;;;2.35;2.15;;;;;;;14.60;67.10;98535.66;5027354;28;20398;-83
2022/07/16 00:32:07;;;;;;;2.60;2.40;;;;;;;14.67;66.92;98546.97;5023490;28;20049;-83
2022/07/16 00:34:35;;;;;;;2.75;2.40;;;;;;;14.51;66.00;98531.66;5028124;28;20440;-82
2022/07/16 00:37:02;;;;;;;3.25;2.90;;;;;;;14.28;66.36;98534.03;5028174;28;20096;-82
2022/07/16 00:39:29;;;;;;;3.60;2.58;;;;;;;14.15;66.66;98543.66;5024397;28;20087;-82
2022/07/16 00:41:55;;;;;;;3.78;2.80;;;;;;;13.91;67.55;98521.47;5030743;28;20460;-82
2022/07/16 00:44:22;;;;;;;2.92;2.50;;;;;;;13.94;67.74;98536.03;5029204;28;21033;-82
2022/07/16 00:46:50;;;;;;;3.55;2.53;;;;;;;13.99;67.50;98544.13;5025197;28;20696;-82
2022/07/16 00:49:19;;;;;;;3.05;2.30;;;;;;;13.98;67.26;98547.00;5029843;28;20037;-82
2022/07/16 00:51:50;;;;;;;2.70;2.15;;;;;;;13.95;67.42;98537.66;5017601;28;20072;-83
2022/07/16 00:54:18;;;;;;;2.40;2.08;;;;;;;14.05;67.54;98540.66;5031851;28;20095;-82
2022/07/16 00:56:45;;;;;;;2.13;1.85;;;;;;;14.16;67.03;98537.34;5020681;28;20037;-83
2022/07/16 00:59:13;;;;;;;2.75;2.20;;;;;;;14.12;66.25;98548.53;5023441;28;20038;-82
2022/07/16 01:01:40;;;;;;;2.20;2.00;;;;;;;13.89;66.02;98534.03;5021659;28;20096;-82
2022/07/16 01:04:14;;;;;;;2.97;2.22;;;;;;;13.95;66.08;98548.19;5026193;28;20053;-82
2022/07/16 01:06:41;;;;;;;2.22;1.95;;;;;;;13.93;66.27;98550.25;5028456;28;20068;-82
2022/07/16 01:09:09;;;;;;;2.63;2.10;;;;;;;13.97;65.31;98551.44;5019469;28;20117;-82
2022/07/16 01:11:36;;;;;;;2.00;1.80;;;;;;;14.05;65.69;98545.94;5019369;28;20445;-82
2022/07/16 01:14:05;;;;;;;2.30;1.83;;;;;;;14.17;64.32;98554.78;5020626;28;20049;-82
2022/07/16 01:16:32;;;;;;;1.60;1.50;;;;;;;14.17;66.06;98546.88;5028300;28;20401;-82
2022/07/16 01:18:59;;;;;;;1.35;1.23;;;;;;;14.28;65.52;98542.75;5015844;28;20571;-82
2022/07/16 01:21:26;;;;;;;1.60;1.50;;;;;;;14.29;64.73;98533.03;5022285;28;20050;-82
2022/07/16 01:23:52;;;;;;;1.90;1.70;;;;;;;14.35;63.56;98542.72;5010908;28;20050;-81
2022/07/16 01:26:19;;;;;;;2.00;1.52;;;;;;;14.43;65.28;98539.81;5013327;28;20046;-82
2022/07/16 01:28:46;;;;;;;1.92;1.73;;;;;;;14.51;63.48;98538.78;5029408;28;20100;-82
2022/07/16 01:31:13;;;;;;;2.65;1.92;;;;;;;14.37;62.71;98551.22;5029439;28;20046;-82
2022/07/16 01:33:42;;;;;;;1.65;1.52;;;;;;;14.16;63.10;98544.47;5030569;28;20038;-82
2022/07/16 01:36:14;;;;;;;2.72;1.80;;;;;;;14.10;63.00;98561.94;5023769;28;20073;-82
2022/07/16 01:38:44;;;;;;;1.60;1.50;;;;;;;14.02;64.80;98542.88;5023697;28;20086;-82
2022/07/16 01:41:13;;;;;;;1.80;1.52;;;;;;;14.06;65.00;98544.91;5018531;28;20105;-82
2022/07/16 01:43:40;;;;;;;2.47;1.73;;;;;;;14.19;65.67;98539.56;5023883;28;20045;-83
2022/07/16 01:46:07;;;;;;;2.08;1.80;;;;;;;14.29;64.90;98543.56;5029082;28;20049;-82
2022/07/16 01:48:33;;;;;;;2.15;1.67;;;;;;;14.05;65.56;98538.00;5029365;28;20115;-82
2022/07/16 01:51:00;;;;;;;2.22;1.92;;;;;;;13.97;65.22;98545.34;5030239;28;20072;-82
2022/07/16 01:53:29;;;;;;;2.60;1.98;;;;;;;13.84;64.95;98533.84;5030548;28;20851;-82
2022/07/16 01:55:58;;;;;;;3.80;2.40;;;;;;;13.73;65.29;98550.31;5030602;28;20037;-82
2022/07/16 01:58:25;;;;;;;2.67;2.00;;;;;;;13.59;66.62;98532.94;5026238;28;20050;-82
2022/07/16 02:00:52;;;;;;;2.55;1.60;;;;;;;13.79;66.98;98546.84;5026121;28;20041;-82
2022/07/16 02:03:20;;;;;;;2.55;1.85;;;;;;;13.83;66.85;98542.78;5029369;28;20103;-82
2022/07/16 02:05:47;;;;;;;2.40;1.90;;;;;;;13.89;65.92;98543.75;5021076;28;20033;-82
2022/07/16 02:08:14;;;;;;;1.88;1.73;;;;;;;13.88;66.82;98531.59;5018235;28;20033;-82
2022/07/16 02:10:41;;;;;;;2.60;2.17;;;;;;;14.03;68.66;98544.50;5025767;28;20107;-82
2022/07/16 02:13:08;;;;;;;2.25;1.80;;;;;;;13.90;66.46;98540.09;5025729;28;20099;-82
2022/07/16 02:15:35;;;;;;;2.00;1.80;;;;;;;13.83;66.39;98539.34;5029607;28;20132;-82
2022/07/16 02:18:02;;;;;;;2.05;1.85;;;;;;;13.66;66.71;98533.72;5013342;28;20465;-82
2022/07/16 02:20:48;;;;;;;2.58;1.85;;;;;;;13.60;66.98;98524.81;5010785;28;20138;-82
2022/07/16 02:23:33;;;;;;;2.60;1.70;;;;;;;13.68;66.76;98531.69;5027348;28;20045;-82
2022/07/16 02:26:00;;;;;;;2.47;2.20;;;;;;;13.50;67.05;98536.84;5034853;28;20037;-83
2022/07/16 02:28:27;;;;;;;2.40;2.20;;;;;;;13.38;67.59;98542.72;5034656;28;20092;-82
2022/07/16 02:30:53;;;;;;;3.45;2.90;;;;;;;13.21;68.11;98538.09;5034665;28;20449;-83
2022/07/16 02:33:21;;;;;;;2.67;2.47;;;;;;;13.12;68.53;98538.28;5034657;28;20045;-82
2022/07/16 02:35:48;;;;;;;3.05;2.25;;;;;;;13.14;69.07;98540.72;5034129;28;20041;-82
2022/07/16 02:38:15;;;;;;;2.85;2.58;;;;;;;13.12;69.41;98545.38;5034760;28;20405;-82
2022/07/16 02:40:43;;;;;;;2.78;2.20;;;;;;;13.03;69.08;98536.06;5028804;28;20049;-82
2022/07/16 02:43:11;;;;;;;2.25;2.00;;;;;;;13.10;69.63;98528.97;5018851;28;20042;-82
2022/07/16 02:45:41;;;;;;;1.80;1.70;;;;;;;13.25;69.33;98537.47;5025454;28;20075;-82
2022/07/16 02:48:10;;;;;;;2.20;2.00;;;;;;;13.43;70.10;98542.09;5034111;28;20041;-81
2022/07/16 02:50:37;;;;;;;2.40;2.20;;;;;;;13.54;70.76;98524.84;5033666;28;20292;-82
2022/07/16 02:53:05;;;;;;;2.30;1.90;;;;;;;13.66;69.77;98534.53;5020262;28;20700;-81
2022/07/16 02:55:31;;;;;;;2.08;1.88;;;;;;;13.72;68.92;98532.06;5029708;28;20485;-82
2022/07/16 02:57:58;;;;;;;2.33;1.90;;;;;;;13.76;68.01;98554.38;5028640;28;20044;-82
2022/07/16 03:00:27;;;;;;;2.00;1.80;;;;;;;13.62;67.75;98541.25;5030687;28;20041;-82
2022/07/16 03:02:55;;;;;;;1.92;1.73;;;;;;;13.39;67.88;98536.44;5012810;28;20042;-82
2022/07/16 03:05:22;;;;;;;3.13;2.40;;;;;;;13.22;68.32;98532.63;5029918;28;20056;-82
2022/07/16 03:07:49;;;;;;;1.92;1.63;;;;;;;13.27;69.62;98529.38;5022199;28;20042;-82
2022/07/16 03:10:16;;;;;;;2.42;1.85;;;;;;;13.35;69.55;98535.22;5013926;28;20045;-82
2022/07/16 03:12:43;;;;;;;1.95;1.83;;;;;;;13.50;69.42;98550.81;5013917;28;20045;-82
2022/07/16 03:15:12;;;;;;;2.30;1.70;;;;;;;13.49;69.93;98553.63;5029959;28;20046;-82
2022/07/16 03:17:40;;;;;;;2.40;1.85;;;;;;;13.54;69.64;98552.00;5014703;28;20048;-82
2022/07/16 03:20:25;;;;;;;2.10;1.90;;;;;;;13.31;68.84;98549.84;5033287;28;20529;-82
2022/07/16 03:22:59;;;;;;;2.42;2.13;;;;;;;13.17;69.30;98547.41;5033396;28;20049;-82
2022/07/16 03:25:26;;;;;;;2.42;2.00;;;;;;;12.99;69.53;98548.03;5021907;28;20046;-82
2022/07/16 03:27:52;;;;;;;2.53;2.10;;;;;;;12.92;69.81;98552.47;5020117;28;20037;-82
2022/07/16 03:30:19;;;;;;;2.20;2.00;;;;;;;12.71;70.35;98556.13;5033114;28;20644;-82
2022/07/16 03:32:46;;;;;;;2.53;2.05;;;;;;;12.55;70.94;98558.16;5024365;28;20667;-83
2022/07/16 03:35:14;;;;;;;2.72;2.50;;;;;;;12.40;71.64;98575.91;5030832;28;20440;-84
2022/07/16 03:40:28;;;;;;;3.40;2.80;;;;;;;12.16;72.57;98571.19;5019276;28;20057;-83
2022/07/16 03:42:56;;;;;;;2.72;2.20;;;;;;;12.25;72.95;98572.66;5031511;28;20049;-82
2022/07/16 03:45:22;;;;;;;2.47;2.03;;;;;;;12.43;73.55;98575.53;5032986;28;20482;-82
2022/07/16 03:47:49;;;;;;;2.88;1.92;;;;;;;12.58;73.40;98568.25;5032681;28;20451;-82
2022/07/16 03:50:17;;;;;;;2.70;2.25;;;;;;;12.74;72.82;98582.03;5031703;28;20490;-82
2022/07/16 03:52:45;;;;;;;2.35;2.15;;;;;;;12.78;73.14;98564.84;5044949;28;20103;-82
2022/07/16 03:55:12;;;;;;;2.45;1.98;;;;;;;13.03;72.15;98586.91;5025696;28;20053;-82
2022/07/16 03:57:40;;;;;;;2.40;2.20;;;;;;;13.15;71.85;98588.94;5011676;28;20043;-82
2022/07/16 04:00:09;;;;;;;2.85;2.13;;;;;;;13.11;70.77;98572.72;5012377;28;20080;-82
2022/07/16 04:02:36;;;;;;;2.40;2.20;;;;;;;12.97;70.95;98595.63;5013099;28;20046;-82
2022/07/16 04:05:04;;;;;;;4.30;2.55;;;;;;;12.55;71.09;98589.72;5013032;28;20120;-82
2022/07/16 04:07:31;;;;;;;2.92;1.95;;;;;;;12.41;72.34;98572.25;5026608;28;20053;-82
2022/07/16 04:09:57;;;;;;;2.00;1.83;;;;;;;12.58;73.24;98599.03;5020342;28;20037;-82
2022/07/16 04:12:24;;;;;;;2.95;2.22;;;;;;;12.70;73.22;98601.88;5022356;28;20038;-82
2022/07/16 04:14:52;;;;;;;3.38;2.05;;;;;;;12.80;71.51;98594.41;5013399;28;20037;-82
2022/07/16 04:17:19;;;;;;;2.53;2.30;;;;;;;12.55;71.34;98586.28;5008948;28;20038;-82
2022/07/16 04:20:05;;;;;;;2.22;2.03;;;;;;;12.46;71.92;98585.63;5020026;28;20053;-82
2022/07/16 04:22:47;;;;;;;3.38;2.30;;;;;;;12.32;71.92;98589.25;5032157;28;20051;-82
2022/07/16 04:25:14;;;;;;;3.90;2.72;;;;;;;12.15;72.60;98590.63;5030753;28;20041;-83
2022/07/16 04:27:42;;;;;;;2.75;2.40;;;;;;;12.14;73.43;98596.88;5024518;28;20069;-82
2022/07/16 04:30:10;;;;;;;3.35;2.30;;;;;;;12.26;73.86;98596.13;5032604;28;20531;-82
2022/07/16 04:32:39;;;;;;;2.38;2.10;;;;;;;12.32;74.34;98573.47;5020363;28;20091;-82
2022/07/16 04:35:09;;;;;;;2.17;1.98;;;;;;;12.56;74.71;98587.88;5033026;28;20378;-82
2022/07/16 04:37:36;;;;;;;2.53;2.20;;;;;;;12.71;74.31;98587.69;5032514;28;20038;-82
2022/07/16 04:40:05;;;;;;;2.20;2.00;;;;;;;12.90;74.16;98594.81;5045752;28;20421;-82
2022/07/16 04:42:32;;;;;;;3.75;2.45;;;;;;;13.00;73.76;98597.03;5032493;28;20087;-83
2022/07/16 04:45:00;;;;;;;3.10;2.38;;;;;;;12.99;73.30;98596.22;5012469;28;20084;-82
2022/07/16 04:47:26;;;;;;;2.83;2.63;;;;;;;13.16;72.55;98601.09;5016840;28;20049;-82
2022/07/16 04:49:53;;;;;;;2.53;2.30;;;;;;;13.16;73.40;98596.63;5013674;28;20080;-83
2022/07/16 04:52:20;;;;;;;2.22;2.03;;;;;;;13.14;72.58;98601.31;5032328;28;20060;-83
2022/07/16 04:54:47;;;;;;;2.40;2.20;;;;;;;12.94;71.49;98588.13;5012476;28;20119;-82
2022/07/16 04:57:13;;;;;;;2.65;2.13;;;;;;;12.79;72.47;98590.97;5011450;28;20042;-83
2022/07/16 04:59:40;;;;;;;2.40;2.05;;;;;;;12.94;74.08;98605.75;5027347;28;20085;-83
2022/07/16 05:04:54;;;;;;;2.60;2.20;;;;;;;13.25;73.87;98602.50;5026158;28;20494;-83
2022/07/16 05:07:20;;;;;;;3.15;2.30;;;;;;;13.30;73.58;98600.09;5012201;28;20049;-83
2022/07/16 05:09:47;;;;;;;2.80;2.40;;;;;;;13.39;72.86;98612.84;5011064;28;20413;-83
2022/07/16 05:12:14;;;;;;;2.30;2.10;;;;;;;13.37;73.25;98608.78;5019565;28;20041;-82
2022/07/16 05:14:40;;;;;;;1.70;1.60;;;;;;;13.48;72.25;98605.53;5031269;28;20050;-83
2022/07/16 05:17:07;;;;;;;2.00;1.80;;;;;;;13.53;71.31;98608.34;5022129;28;20037;-82
2022/07/16 05:19:34;;;;;;;2.17;1.98;;;;;;;13.36;70.93;98601.91;5023495;28;20137;-82
2022/07/16 05:22:01;;;;;;;1.98;1.80;;;;;;;13.32;70.61;98608.59;5027171;28;20073;-82
2022/07/16 05:24:27;;;;;;;4.07;2.53;;;;;;;13.20;69.23;98610.22;5021443;28;20091;-83
2022/07/16 05:26:54;;;;;;;3.03;2.40;;;;;;;13.15;69.57;98610.00;5021924;28;20077;-83
2022/07/16 05:29:21;;;;;;;2.92;2.40;;;;;;;13.17;71.21;98597.44;5011297;28;20042;-84
2022/07/16 05:31:47;;;;;;;2.08;1.88;;;;;;;13.42;72.88;98611.63;5020452;28;20321;-85
2022/07/16 05:34:14;;;;;;;2.40;2.00;;;;;;;13.52;70.22;98605.94;5031298;28;20046;-85
2022/07/16 05:36:41;;;;;;;2.50;2.00;;;;;;;13.65;69.65;98585.63;5031372;28;20091;-85
2022/07/16 05:39:07;;;;;;;2.17;1.98;;;;;;;13.90;70.67;98593.66;5012437;28;20580;-85
2022/07/16 05:41:34;;;;;;;1.95;1.75;;;;;;;14.13;70.66;98598.44;5011220;28;20042;-85
2022/07/16 05:44:02;;;;;;;2.30;2.08;;;;;;;14.39;69.95;98617.78;5014577;28;20106;-85
2022/07/16 05:46:28;;;;;;;1.85;1.75;;;;;;;14.45;68.95;98606.38;5031389;28;20444;-85
2022/07/16 05:48:55;;;;;;;2.40;2.20;;;;;;;14.68;67.07;98625.16;5028298;28;20037;-85
2022/07/16 05:51:21;;;;;;;2.40;2.20;;;;;;;14.80;68.01;98614.72;5015253;28;20045;-84
2022/07/16 05:53:48;;;;;;;2.30;2.10;;;;;;;14.90;65.21;98617.72;5024213;28;20072;-85
2022/07/16 05:56:15;;;;;;;2.95;2.00;;;;;;;14.88;64.46;98630.31;5029445;28;20041;-84
2022/07/16 05:58:42;;;;;;;2.45;1.90;;;;;;;14.93;66.11;98619.94;5027306;28;20044;-84
2022/07/16 06:01:09;;;;;;;2.80;1.73;;;;;;;15.11;66.08;98621.78;5023221;28;20046;-84
2022/07/16 06:03:37;;;;;;;2.00;1.65;;;;;;;15.21;63.61;98624.78;5013005;28;20041;-85
2022/07/16 06:06:04;;;;;;;2.40;2.20;;;;;;;15.25;61.26;98630.44;5023417;28;20073;-84
2022/07/16 06:08:31;;;;;;;2.17;2.00;;;;;;;15.33;62.17;98613.50;5009785;28;20038;-85
2022/07/16 06:10:59;;;;;;;1.80;1.70;;;;;;;15.56;64.63;98624.25;5008168;28;20406;-85
2022/07/16 06:13:25;;;;;;;1.98;1.67;;;;;;;15.75;61.72;98623.28;5029702;28;20050;-85
2022/07/16 06:15:52;;;;;;;1.60;1.40;;;;;;;16.01;63.98;98616.06;5043749;28;20099;-85
2022/07/16 06:18:19;;;;;;;1.85;1.70;;;;;;;16.23;61.65;98614.56;5022527;28;20053;-85
2022/07/16 06:20:58;;;;;;;1.20;1.10;;;;;;;16.49;62.06;98625.84;5012897;28;20045;-85
2022/07/16 06:23:24;;;;;;;1.83;1.73;;;;;;;16.81;58.39;98632.53;5024730;28;20532;-86
2022/07/16 06:25:51;;;;;;;2.08;1.88;;;;;;;16.87;58.16;98640.63;5021269;28;20068;-86
2022/07/16 06:28:18;;;;;;;2.53;1.98;;;;;;;16.95;56.79;98640.28;5018649;28;20119;-85
2022/07/16 06:30:45;;;;;;;1.70;1.60;;;;;;;16.95;57.13;98638.44;5022461;28;20045;-85
2022/07/16 06:33:11;;;;;;;1.73;1.63;;;;;;;17.14;58.63;98641.81;5021226;28;20046;-90
2022/07/16 06:35:42;;;;;;;2.40;1.80;;;;;;;17.32;57.56;98638.25;5027752;28;20500;-90
2022/07/16 06:38:09;;;;;;;1.60;1.40;;;;;;;17.66;61.16;98655.22;5015360;28;20448;-91
2022/07/16 06:40:36;;;;;;;2.17;1.58;;;;;;;17.87;58.74;98654.66;5013603;28;20057;-90
2022/07/16 06:43:03;;;;;;;2.10;1.60;;;;;;;17.83;56.53;98639.44;5025918;28;20054;-89
2022/07/16 06:45:29;;;;;;;1.55;1.45;;;;;;;17.96;57.85;98639.19;5023865;28;20624;-90
2022/07/16 06:47:56;;;;;;;2.58;1.60;;;;;;;18.12;53.82;98649.09;5009404;28;20554;-90
2022/07/16 06:50:24;;;;;;;1.60;1.50;;;;;;;18.36;55.00;98649.03;5019886;28;20061;-90
2022/07/16 06:52:51;;;;;;;1.65;1.30;;;;;;;18.51;56.28;98636.00;4993845;28;20074;-88
2022/07/16 06:55:18;;;;;;;1.45;1.20;;;;;;;18.73;53.30;98627.41;5010883;28;20104;-89
2022/07/16 06:57:45;;;;;;;2.05;1.20;;;;;;;18.87;50.85;98624.19;5009405;28;20046;-88
2022/07/16 07:00:12;;;;;;;1.02;1.02;;;;;;;19.08;50.52;98645.81;5018617;28;20050;-87
2022/07/16 07:02:39;;;;;;;1.70;1.40;;;;;;;19.16;50.67;98648.06;5005674;28;20378;-91
2022/07/16 07:05:12;;;;;;;1.98;1.40;;;;;;;19.36;49.30;98642.25;4999516;28;20100;-88
2022/07/16 07:07:38;;;;;;;2.20;1.20;;;;;;;19.51;48.26;98648.63;5012646;28;20057;-91
2022/07/16 07:10:05;;;;;;;1.35;1.23;;;;;;;19.55;48.24;98637.47;5031854;28;20056;-88
2022/07/16 07:12:36;;;;;;;1.52;1.30;;;;;;;19.81;48.47;98652.78;5022171;28;20049;-90
2022/07/16 07:15:09;;;;;;;2.90;1.90;;;;;;;19.90;46.11;98653.94;5028606;28;20050;-89
2022/07/16 07:17:36;;;;;;;2.10;1.20;;;;;;;19.99;47.31;98647.16;5038872;28;20221;-88
2022/07/16 07:20:17;;;;;;;2.60;1.40;;;;;;;20.24;48.23;98651.19;5024208;28;20052;-90
2022/07/16 07:22:50;;;;;;;2.80;1.48;;;;;;;20.40;47.79;98649.53;5023987;28;20045;-88
2022/07/16 07:25:17;;;;;;;2.35;1.40;;;;;;;20.46;45.58;98641.34;5021406;28;20046;-87
2022/07/16 07:27:43;;;;;;;1.40;1.30;;;;;;;20.52;45.14;98632.38;5029554;28;20575;-88
2022/07/16 07:30:11;;;;;;;2.42;1.30;;;;;;;20.73;45.18;98640.56;5028468;28;20057;-84
2022/07/16 07:32:38;;;;;;;2.13;1.13;;;;;;;20.78;43.73;98624.59;5025585;28;20053;-87
2022/07/16 07:35:06;;;;;;;1.35;1.25;;;;;;;20.93;46.59;98634.59;5031586;28;20571;-88
2022/07/16 07:37:34;;;;;;;1.48;1.30;;;;;;;20.91;42.09;98632.19;5027996;28;20112;-93
2022/07/16 07:40:05;;;;;;;2.75;1.33;;;;;;;21.04;44.07;98630.97;5025304;28;20046;-89
2022/07/16 07:42:32;;;;;;;1.48;1.00;;;;;;;21.06;41.62;98624.31;5020994;28;20049;-93
2022/07/16 07:44:59;;;;;;;1.63;1.45;;;;;;;21.14;40.75;98614.25;5018878;28;20042;-89
2022/07/16 07:47:27;;;;;;;2.03;1.10;;;;;;;21.30;40.24;98635.47;5026813;28;20095;-88
2022/07/16 07:49:55;;;;;;;2.15;1.30;;;;;;;21.47;42.23;98634.50;5021970;28;20493;-86
2022/07/16 07:52:22;;;;;;;1.45;0.95;;;;;;;21.58;39.16;98630.84;5009361;28;20097;-90
2022/07/16 07:54:49;;;;;;;1.52;1.10;;;;;;;21.56;39.98;98607.09;5027290;28;20541;-88
2022/07/16 07:57:16;;;;;;;1.90;1.30;;;;;;;21.44;37.78;98640.38;5020968;28;20116;-87
2022/07/16 07:59:43;;;;;;;1.83;1.38;;;;;;;21.57;39.67;98632.72;5024860;28;20045;-88
2022/07/16 08:02:10;;;;;;;2.40;1.17;;;;;;;21.71;38.98;98619.72;5008091;28;20088;-87
2022/07/16 08:04:36;;;;;;;1.52;1.10;;;;;;;21.91;39.43;98627.81;5024883;28;20041;-90
2022/07/16 08:07:04;;;;;;;1.40;1.02;;;;;;;21.89;39.59;98627.28;5024862;28;20044;-86
2022/07/16 08:09:31;;;;;;;1.88;1.15;;;;;;;22.02;39.19;98626.00;5024115;28;20072;-84
2022/07/16 08:11:57;;;;;;;1.52;1.08;;;;;;;21.95;40.06;98620.13;5025934;28;20073;-85
2022/07/16 08:14:24;;;;;;;3.17;1.50;;;;;;;22.07;41.37;98634.06;5024813;28;20045;-86
2022/07/16 08:16:57;;;;;;;2.28;1.20;;;;;;;22.22;38.73;98629.84;5025221;28;20045;-85
2022/07/16 08:19:25;;;;;;;1.88;1.48;;;;;;;22.21;38.14;98628.25;5025417;28;20489;-88
2022/07/16 08:21:52;;;;;;;1.27;1.10;;;;;;;22.29;39.42;98619.72;5025986;28;20382;-86
2022/07/16 08:27:07;;;;;;;1.85;1.10;;;;;;;22.60;37.82;98616.03;5024867;28;20227;-88
2022/07/16 08:29:33;;;;;;;1.25;1.08;;;;;;;22.64;36.80;98621.66;5026865;28;20053;-91
2022/07/16 08:32:01;;;;;;;1.10;1.00;;;;;;;22.75;38.54;98623.28;5006858;28;20046;-88
2022/07/16 08:34:27;;;;;;;2.85;1.48;;;;;;;22.67;36.80;98613.94;5003043;28;20191;-88
2022/07/16 08:36:54;;;;;;;1.85;1.15;;;;;;;22.79;38.12;98602.97;5023898;28;20044;-89
2022/07/16 08:39:22;;;;;;;1.58;1.13;;;;;;;22.93;35.87;98613.97;5019776;28;20540;-88
2022/07/16 08:41:49;;;;;;;0.80;0.80;;;;;;;23.20;39.10;98613.69;5022224;28;20045;-86
2022/07/16 08:44:16;;;;;;;1.35;1.10;;;;;;;23.27;37.46;98619.59;5020621;28;20053;-89
2022/07/16 08:46:43;;;;;;;1.30;1.00;;;;;;;23.45;37.60;98607.50;5023217;28;20052;-87
2022/07/16 08:49:10;;;;;;;1.42;1.00;;;;;;;23.41;34.59;98617.16;5024043;28;20065;-90
2022/07/16 08:51:39;;;;;;;0.98;0.98;;;;;;;23.04;35.13;98614.78;5024395;28;20069;-91
2022/07/16 08:54:20;;;;;;;1.45;1.10;;;;;;;22.57;36.49;98605.09;5007150;28;20051;-88
2022/07/16 08:56:52;;;;;;;2.05;1.08;;;;;;;22.88;36.76;98619.31;5022242;28;20088;-93
2022/07/16 08:59:19;;;;;;;2.60;1.27;;;;;;;23.26;36.47;98627.88;5023673;28;20095;-94
2022/07/16 09:01:46;;;;;;;1.17;1.00;;;;;;;23.28;34.93;98601.66;5022459;28;20053;-87
2022/07/16 09:04:12;;;;;;;1.20;0.90;;;;;;;23.46;35.17;98612.59;5024385;28;20052;-86
2022/07/16 09:06:39;;;;;;;1.58;1.10;;;;;;;23.55;34.33;98610.16;5025164;28;20075;-91
2022/07/16 09:09:06;;;;;;;2.72;1.20;;;;;;;23.38;34.23;98609.66;5021010;28;20050;-93
2022/07/16 09:11:35;;;;;;;1.50;1.20;;;;;;;23.60;35.55;98628.09;5012522;28;20482;-91
2022/07/16 09:14:11;;;;;;;2.83;1.55;;;;;;;23.56;34.66;98627.81;5025642;28;20041;-93
2022/07/16 09:16:50;;;;;;;1.95;1.17;;;;;;;23.89;36.13;98623.75;5017230;28;20069;-88
2022/07/16 09:19:18;;;;;;;1.52;1.20;;;;;;;23.72;35.01;98631.31;5019786;28;20497;-86
2022/07/16 09:22:07;;;;;;;0.93;0.80;;;;;;;23.63;36.45;98639.09;5024475;28;20111;-87
2022/07/16 09:24:47;;;;;;;1.08;0.90;;;;;;;23.66;35.77;98637.75;5025414;28;20076;-90
2022/07/16 09:27:24;;;;;;;2.10;1.30;;;;;;;23.42;35.07;98635.63;5026615;28;20072;-91
2022/07/16 09:30:02;;;;;;;1.30;1.20;;;;;;;23.60;35.61;98623.53;5026146;28;20045;-93
2022/07/16 09:32:36;;;;;;;1.92;1.23;;;;;;;23.72;35.31;98624.06;5022826;28;20092;-92
2022/07/16 09:35:11;;;;;;;2.45;1.17;;;;;;;23.43;35.01;98623.81;5020180;28;20655;-91
2022/07/16 09:37:57;;;;;;;1.30;0.98;;;;;;;23.22;35.98;98623.06;5025285;28;20461;-89
2022/07/16 09:40:46;;;;;;;1.60;0.90;;;;;;;23.45;36.66;98621.69;5022420;28;20099;-85
2022/07/16 09:43:15;;;;;;;2.90;1.42;;;;;;;23.35;34.67;98615.56;5027788;28;20065;-86
2022/07/16 09:46:05;;;;;;;1.73;1.40;;;;;;;23.19;35.83;98623.59;5022925;28;20041;-87
2022/07/16 09:48:36;;;;;;;1.90;1.38;;;;;;;23.17;36.47;98619.59;5020934;28;20084;-91
2022/07/16 09:51:26;;;;;;;1.50;1.40;;;;;;;23.11;35.40;98626.00;5022844;28;20065;-93
2022/07/16 09:53:55;;;;;;;1.70;1.30;;;;;;;22.98;35.63;98623.88;5004776;28;20137;-87
2022/07/16 09:56:27;;;;;;;1.08;1.00;;;;;;;23.06;35.89;98621.47;5023205;28;20460;-89
2022/07/16 09:58:58;;;;;;;2.42;1.13;;;;;;;23.35;36.74;98620.91;5008980;28;20140;-93
2022/07/16 10:01:31;;;;;;;1.40;1.30;;;;;;;23.35;34.11;98620.91;5023895;28;20088;-91
2022/07/16 10:03:58;;;;;;;0.88;0.82;;;;;;;23.55;34.91;98604.00;5023932;28;20116;-90
2022/07/16 10:06:26;;;;;;;1.85;0.90;;;;;;;23.97;35.83;98617.03;5022361;28;20061;-90
2022/07/16 10:08:54;;;;;;;1.20;1.10;;;;;;;23.86;33.84;98605.53;5024196;28;20527;-90
2022/07/16 10:11:22;;;;;;;1.27;1.17;;;;;;;23.81;34.30;98612.78;5010639;28;20049;-87
2022/07/16 10:13:50;;;;;;;0.80;0.80;;;;;;;24.13;33.52;98604.38;5021787;28;20072;-93
2022/07/16 10:16:45;;;;;;;1.92;1.13;;;;;;;24.33;33.80;98593.53;5021307;28;20033;-90
2022/07/16 10:19:14;;;;;;;1.10;0.93;;;;;;;24.62;35.47;98615.09;5004919;28;20132;-85
2022/07/16 10:22:27;;;;;;;2.30;1.00;;;;;;;24.41;33.21;98608.25;5024710;28;20077;-88
2022/07/16 10:24:56;;;;;;;1.10;1.00;;;;;;;24.47;34.09;98615.19;5020690;28;20065;-86
2022/07/16 10:27:35;;;;;;;1.10;0.93;;;;;;;24.80;34.00;98619.00;5022306;28;20096;-86
2022/07/16 10:30:29;;;;;;;1.50;0.90;;;;;;;25.25;33.22;98620.56;5027459;28;20325;-88
2022/07/16 10:32:59;;;;;;;1.45;1.10;;;;;;;25.25;31.58;98622.41;5012163;28;20046;-86
2022/07/16 10:35:33;;;;;;;1.20;1.10;;;;;;;25.28;32.33;98613.81;5012215;28;20129;-90
2022/07/16 10:38:20;;;;;;;1.38;1.17;;;;;;;25.04;32.11;98603.00;5000860;28;20559;-90
2022/07/16 10:41:20;;;;;;;1.17;1.08;;;;;;;24.79;34.43;98615.53;5005554;28;20096;-85
2022/07/16 10:44:09;;;;;;;1.20;1.10;;;;;;;25.11;34.70;98613.44;5021516;28;20049;-85
2022/07/16 10:46:57;;;;;;;1.65;1.10;;;;;;;25.46;33.61;98621.16;5033175;28;20087;-84
2022/07/16 10:49:27;;;;;;;3.38;1.23;;;;;;;25.64;32.66;98611.56;5022781;28;20090;-87
2022/07/16 10:52:05;;;;;;;1.10;1.00;;;;;;;25.76;33.23;98606.63;5029989;28;20054;-85
2022/07/16 10:54:35;;;;;;;1.83;0.90;;;;;;;25.91;32.44;98604.84;5025930;28;20559;-84
2022/07/16 10:57:11;;;;;;;1.92;1.20;;;;;;;25.66;32.02;98611.28;5025868;28;20042;-89
2022/07/16 10:59:46;;;;;;;1.92;1.10;;;;;;;25.43;32.52;98610.16;5027011;28;20557;-85
2022/07/16 11:02:17;;;;;;;2.00;1.20;;;;;;;25.10;32.21;98607.25;5026669;28;20123;-87
2022/07/16 11:04:49;;;;;;;0.70;0.70;;;;;;;25.50;33.38;98624.09;5026921;28;20468;-87
2022/07/16 11:07:20;;;;;;;1.17;0.95;;;;;;;25.70;32.24;98615.78;5024393;28;20038;-89
2022/07/16 11:09:53;;;;;;;1.25;1.10;;;;;;;26.13;31.62;98618.53;5028922;28;20037;-87
2022/07/16 11:12:25;;;;;;;1.00;1.00;;;;;;;26.65;31.92;98614.09;5023282;28;20073;-89
2022/07/16 11:14:55;;;;;;;1.55;1.20;;;;;;;26.99;32.23;98613.84;5024186;28;20049;-86
2022/07/16 11:17:27;;;;;;;1.13;1.08;;;;;;;26.58;29.92;98619.06;5022734;28;20100;-89
2022/07/16 11:20:00;;;;;;;1.48;1.02;;;;;;;26.00;31.56;98608.50;5026919;28;20041;-86
2022/07/16 11:22:30;;;;;;;1.17;1.10;;;;;;;25.62;32.08;98622.59;5020301;28;20498;-90
2022/07/16 11:25:05;;;;;;;1.67;1.30;;;;;;;25.15;32.50;98612.59;5022994;28;20084;-89
2022/07/16 11:27:35;;;;;;;1.52;1.10;;;;;;;24.83;33.02;98621.94;5022091;28;20045;-88
2022/07/16 11:30:09;;;;;;;1.63;1.00;;;;;;;24.63;33.43;98611.34;5021893;28;20212;-86
2022/07/16 11:32:47;;;;;;;2.28;1.30;;;;;;;24.86;33.33;98617.88;5025798;28;20049;-86
2022/07/16 11:35:15;;;;;;;1.52;1.20;;;;;;;25.03;32.57;98612.13;5008344;28;20501;-94
2022/07/16 11:37:57;;;;;;;1.45;1.30;;;;;;;25.39;34.37;98622.56;5005386;28;20497;-86
2022/07/16 11:40:39;;;;;;;1.65;1.30;;;;;;;25.34;34.03;98623.41;5022275;28;20080;-91
2022/07/16 11:43:06;;;;;;;2.50;1.23;;;;;;;25.21;33.83;98630.25;5037128;28;20046;-89
2022/07/16 11:45:42;;;;;;;1.23;0.90;;;;;;;25.12;33.43;98615.81;5025965;28;20050;-89
2022/07/16 11:48:14;;;;;;;1.60;0.93;;;;;;;25.08;33.87;98604.88;5023335;28;20037;-90
2022/07/16 11:50:43;;;;;;;1.38;1.27;;;;;;;24.98;33.62;98614.84;5019996;28;20136;-89
2022/07/16 11:53:11;;;;;;;1.75;1.10;;;;;;;24.73;35.31;98619.31;5026318;28;20085;-88
2022/07/16 11:55:45;;;;;;;1.60;1.00;;;;;;;24.95;33.12;98631.50;5021824;28;20042;-92